North Platte, NE

9:31 AM CDT on July 23, 2016 (GMT -0500)
NW of Rec Center | | Change Station
Active Advisory: Excessive Heat Warning

Elev 2818 ft 41.13 °N, 100.79 °W | Updated 11 minutes ago

Clear
Clear
82.8 °F
Feels Like 87 °F
N
4.2
Wind Variable Wind from SSW

Today
High -- | Low -- °F
--% Chance of Precip.
Yesterday
High -- | Low -- °F
Precip. -- in
Pressure 29.81 in
Visibility 10.0 miles
Clouds Clear
Heat Index 87 °F
Dew Point 70 °F
Humidity 66%
Rainfall 0.88 in
Snow Depth Not available.
6:30 AM 9:07 PM
Waning Gibbous, 85% visible
METAR KLBF 231353Z AUTO 25007KT 10SM CLR 25/19 A2990 RMK AO2 SLP093 T02500194
Pressure 29.81 in
Visibility 10.0 miles
Clouds Clear
Heat Index 87 °F
Dew Point 70 °F
Humidity 66%
Rainfall 0.88 in
Snow Depth Not available.
6:30 AM 9:07 PM
Waning Gibbous, 85% visible
METAR KLBF 231353Z AUTO 25007KT 10SM CLR 25/19 A2990 RMK AO2 SLP093 T02500194

10-Day Weather Forecast

Almanac

Astronomy

Jul. 23, 2016 Rise Set
Actual Time
Civil Twilight
Nautical Twilight
Astronomical Twilight
Moon
Length of Visible Light
Length of Day
Tomorrow will be .
, % of the Moon is Illuminated

Today's Extremes

State Highs State Lows

Community

WunderPhotos

Upload Photos

1,926,825 photos uploaded!

WunderBlog® & News

Nearby

Air Quality

  Air Quality AQ Index Pollutant
Not available.

Snow Depth

Station Depth Elevation

Earthquake Activity

City Distance Mag. Time & Date
Minimum magnitude displayed is 2.5.

Coastal Water Temperatures

Place Temperature

Stations

Nearby Weather Stations

Station Location Temp. Windchill Dew Point Humidity Wind Precip. Elev Updated Type
                   

Watches & Warnings

Excessive Heat Warning
Issued: 4:13 AM CDT Jul. 23, 2016 – National Weather Service

... Excessive heat warning remains in effect until 7 PM CDT this
evening...

* high temperatures will be nearing 100 degrees once again today.
Humidity will combine with the heat and produce index values
from 100 to 105 degrees during the afternoon and early evening
hours.

* Impacts: the high heat indicies will result in a dangerous
situation for sensitive groups... children... the elderly... or
those with medical conditions. Leaving a child or pet in an
enclosed vehicle can be deadly... even for a short time.

Precautionary/preparedness actions...

An excessive heat warning means that a prolonged period of
dangerously hot temperatures will occur. The combination of hot
temperatures and high humidity will combine to create a dangerous
situation in which heat illnesses are likely. Drink plenty of
fluids... stay in an air-conditioned room... stay out of the sun...
and check up on relatives and neighbors.